createdAt,value
2019-05-15T00:04:15.162Z,97994.73
2019-05-15T00:09:19.064Z,97989.45
2019-05-15T00:14:20.686Z,97991.12
2019-05-15T00:19:22.181Z,97981.69
2019-05-15T00:24:23.772Z,97970.52
2019-05-15T00:29:25.383Z,97974.03
2019-05-15T00:34:28.572Z,97963.91
2019-05-15T00:39:30.241Z,97961.12
2019-05-15T00:44:31.889Z,97953.86
2019-05-15T00:49:33.367Z,97943.78
2019-05-15T00:54:34.966Z,97939.82
2019-05-15T00:59:38.819Z,97931.73
2019-05-15T01:04:39.964Z,97930.26
2019-05-15T01:09:41.478Z,97937.35
2019-05-15T01:14:43.160Z,97929.50
2019-05-15T01:19:44.854Z,97921.95
2019-05-15T01:24:48.497Z,97924.98
2019-05-15T01:29:49.942Z,97921.02
2019-05-15T01:34:51.880Z,97914.98
2019-05-15T01:39:53.365Z,97908.38
2019-05-15T01:44:54.842Z,97901.42
2019-05-15T01:49:58.301Z,97893.58
2019-05-15T01:55:01.110Z,97894.06
2019-05-15T02:00:05.551Z,97887.84
2019-05-15T02:05:09.093Z,97883.98
2019-05-15T02:10:11.182Z,97876.18
2019-05-15T02:15:13.178Z,97874.26
2019-05-15T02:20:15.260Z,97878.97
2019-05-15T02:25:18.537Z,97876.68
2019-05-15T02:30:28.293Z,97880.30
2019-05-15T02:35:23.608Z,97866.11
2019-05-15T02:40:25.591Z,97869.73
2019-05-15T02:45:30.097Z,97859.16
2019-05-15T02:50:30.961Z,97860.38
2019-05-15T02:55:32.445Z,97863.84
2019-05-15T03:00:46.085Z,97856.98
2019-05-15T03:05:40.871Z,97854.23
2019-05-15T03:10:41.242Z,97848.11
2019-05-15T03:15:43.004Z,97853.55
2019-05-15T03:20:45.005Z,97843.73
2019-05-15T03:25:49.050Z,97839.92
2019-05-15T03:31:15.619Z,97830.94
2019-05-15T03:35:55.012Z,97828.64
2019-05-15T03:40:59.637Z,97826.00
2019-05-15T03:46:01.720Z,97817.96
2019-05-15T03:51:04.708Z,97817.50
2019-05-15T03:56:09.391Z,97811.84
2019-05-15T04:01:28.463Z,97809.95
2019-05-15T04:06:13.581Z,97806.94
2019-05-15T04:11:15.281Z,97813.55
2019-05-15T04:16:19.114Z,97817.88
2019-05-15T04:21:20.796Z,97816.75
2019-05-15T04:26:28.402Z,97812.22
2019-05-15T04:31:35.441Z,97808.26
2019-05-15T04:36:32.457Z,97808.89
2019-05-15T04:41:33.928Z,97814.63
2019-05-15T04:46:38.968Z,97806.59
2019-05-15T04:51:39.383Z,97799.30
2019-05-15T04:56:41.143Z,97803.79
2019-05-15T05:01:42.620Z,97797.21
2019-05-15T05:06:44.619Z,97798.19
2019-05-15T05:11:48.766Z,97792.33
2019-05-15T05:16:49.671Z,97796.17
2019-05-15T05:21:51.324Z,97798.13
2019-05-15T05:26:53.007Z,97795.25
2019-05-15T05:31:54.879Z,97789.16
2019-05-15T05:36:58.959Z,97795.16
2019-05-15T05:42:00.066Z,97791.83
2019-05-15T05:47:01.554Z,97791.48
2019-05-15T05:52:03.029Z,97788.77
2019-05-15T05:57:04.499Z,97792.98
2019-05-15T06:02:08.206Z,97785.17
2019-05-15T06:07:14.143Z,97787.21
2019-05-15T06:12:12.967Z,97788.08
2019-05-15T06:17:14.454Z,97797.22
2019-05-15T06:22:16.144Z,97786.27
2019-05-15T06:27:19.829Z,97782.06
2019-05-15T06:32:21.308Z,97772.23
2019-05-15T06:37:22.796Z,97753.34
2019-05-15T06:42:24.369Z,97764.88
2019-05-15T06:47:28.338Z,97773.08
2019-05-15T06:52:29.497Z,97776.46
2019-05-15T06:57:31.093Z,97789.08
2019-05-15T07:02:32.659Z,97785.97
2019-05-15T07:07:34.356Z,97789.46
2019-05-15T07:12:36.037Z,97788.19
2019-05-15T07:17:39.295Z,97791.30
2019-05-15T07:22:40.927Z,97779.90
2019-05-15T07:27:43.624Z,97766.42
2019-05-15T07:32:45.286Z,97764.89
2019-05-15T07:37:47.903Z,97760.92
2019-05-15T07:42:49.560Z,97763.33
2019-05-15T07:47:51.142Z,97761.64
2019-05-15T07:52:52.736Z,97765.41
2019-05-15T07:57:54.308Z,97759.98
2019-05-15T08:02:58.487Z,97764.94
2019-05-15T08:07:59.595Z,97766.27
2019-05-15T08:13:01.074Z,97768.30
2019-05-15T08:18:08.804Z,97769.63
2019-05-15T08:23:08.346Z,97764.45
2019-05-15T08:28:09.694Z,97761.09
2019-05-15T08:33:11.432Z,97755.55
2019-05-15T08:38:14.284Z,97754.16
2019-05-15T08:43:18.346Z,97757.89
2019-05-15T08:48:20.547Z,97754.53
2019-05-15T08:53:22.234Z,97756.19
2019-05-15T08:58:23.876Z,97752.71
2019-05-15T09:03:25.359Z,97759.08
2019-05-15T09:08:29.097Z,97754.77
2019-05-15T09:13:30.361Z,97751.63
2019-05-15T09:18:31.819Z,97752.69
2019-05-15T09:23:33.303Z,97751.48
2019-05-15T09:28:34.855Z,97746.30
2019-05-15T09:33:38.760Z,97744.87
2019-05-15T09:38:40.068Z,97740.53
2019-05-15T09:43:42.413Z,97731.00
2019-05-15T09:48:47.621Z,97725.81
2019-05-15T09:53:48.393Z,97724.97
2019-05-15T09:58:50.254Z,97722.42
2019-05-15T10:03:51.779Z,97718.56
2019-05-15T10:08:53.262Z,97714.22
2019-05-15T10:13:54.732Z,97716.72
2019-05-15T10:18:58.230Z,97708.64
2019-05-15T10:23:59.708Z,97709.74
2019-05-15T10:29:02.615Z,97714.42
2019-05-15T10:34:04.644Z,97710.94
2019-05-15T10:39:08.353Z,97713.45
2019-05-15T10:44:10.115Z,97715.15
2019-05-15T10:49:11.702Z,97706.70
2019-05-15T10:54:13.288Z,97701.27
2019-05-15T10:59:15.129Z,97701.77
2019-05-15T11:04:18.125Z,97698.61
2019-05-15T11:09:19.968Z,97697.55
2019-05-15T11:14:21.431Z,97700.56
2019-05-15T11:19:23.007Z,97695.13
2019-05-15T11:24:24.490Z,97683.67
2019-05-15T11:29:26.085Z,97676.15
2019-05-15T11:34:28.999Z,97671.70
2019-05-15T11:39:30.920Z,97674.09
2019-05-15T11:44:33.780Z,97681.78
2019-05-15T11:49:35.353Z,97683.84
2019-05-15T11:54:38.525Z,97675.25
2019-05-15T11:59:44.831Z,97672.97
2019-05-15T12:04:43.930Z,97663.09
2019-05-15T12:09:45.669Z,97660.89
2019-05-15T12:14:49.491Z,97660.27
2019-05-15T12:19:56.845Z,97653.36
2019-05-15T12:24:54.747Z,97653.73
2019-05-15T12:29:59.748Z,97646.59
2019-05-15T12:35:00.198Z,97649.39
2019-05-15T13:00:26.294Z,97637.98
2019-05-15T13:05:29.076Z,97643.02
2019-05-15T13:10:31.381Z,97640.73
2019-05-15T13:15:33.345Z,97639.77
2019-05-15T13:20:34.815Z,97639.50
2019-05-15T13:25:38.965Z,97632.87
2019-05-15T13:30:41.571Z,97629.48
2019-05-15T13:35:45.651Z,97632.27
2019-05-15T13:40:48.200Z,97637.45
2019-05-15T13:45:50.030Z,97635.16
2019-05-15T13:50:51.529Z,97637.45
2019-05-15T13:55:53.006Z,97632.27
2019-05-15T14:00:54.602Z,97626.97
2019-05-15T14:05:58.129Z,97627.70
2019-05-15T14:10:59.557Z,97623.45
2019-05-15T14:16:01.284Z,97621.52
2019-05-15T14:21:04.216Z,97626.69
2019-05-15T14:26:18.074Z,97624.27
2019-05-15T14:31:09.915Z,97614.66
2019-05-15T14:36:11.463Z,97619.69
2019-05-15T14:41:13.048Z,97614.02
2019-05-15T14:46:14.941Z,97614.39
2019-05-15T14:51:19.056Z,97619.29
2019-05-15T14:56:19.806Z,97615.17
2019-05-15T15:01:21.295Z,97607.84
2019-05-15T15:06:22.801Z,97607.34
2019-05-15T15:11:24.484Z,97614.84
2019-05-15T15:16:26.029Z,97603.86
2019-05-15T15:21:29.271Z,97601.91
2019-05-15T15:26:30.888Z,97603.23
2019-05-15T15:31:33.661Z,97604.92
2019-05-15T15:36:35.251Z,97603.35
2019-05-15T15:41:38.966Z,97605.73
2019-05-15T15:46:40.869Z,97592.11
2019-05-15T15:51:42.714Z,97594.27
2019-05-15T15:56:44.307Z,97587.98
2019-05-15T16:01:45.891Z,97591.23
2019-05-15T16:06:48.283Z,97593.97
2019-05-15T16:11:50.209Z,97599.64
2019-05-15T16:16:52.007Z,97603.13
2019-05-15T16:21:53.651Z,97600.69
2019-05-15T16:26:55.470Z,97606.36
2019-05-15T16:31:58.879Z,97591.41
2019-05-15T16:37:00.658Z,97591.54
2019-05-15T16:42:02.573Z,97590.35
2019-05-15T16:47:04.278Z,97590.27
2019-05-15T16:52:06.032Z,97586.28
2019-05-15T16:57:09.998Z,97588.80
2019-05-15T17:02:11.223Z,97596.27
2019-05-15T17:07:12.734Z,97599.41
2019-05-15T17:12:14.550Z,97601.70
2019-05-15T17:17:18.321Z,97601.48
2019-05-15T17:22:19.837Z,97596.45
2019-05-15T17:27:21.589Z,97592.11
2019-05-15T17:32:23.139Z,97595.27
2019-05-15T17:37:24.851Z,97595.63
2019-05-15T17:42:28.760Z,97599.25
2019-05-15T17:47:30.059Z,97595.17
2019-05-15T17:52:31.786Z,97588.45
2019-05-15T17:57:33.676Z,97588.83
2019-05-15T18:02:37.872Z,97580.41
2019-05-15T18:07:39.201Z,97587.05
2019-05-15T18:12:41.049Z,97579.35
2019-05-15T18:17:42.971Z,97578.03
2019-05-15T18:22:44.820Z,97587.31
2019-05-15T18:27:48.061Z,97591.92
2019-05-15T18:32:50.328Z,97583.61
2019-05-15T18:37:51.928Z,97573.59
2019-05-15T18:42:53.637Z,97570.25
2019-05-15T18:47:55.457Z,97572.17
2019-05-15T18:52:58.397Z,97569.93
2019-05-15T18:58:00.619Z,97580.41
2019-05-15T19:03:16.011Z,97575.80
2019-05-15T19:08:08.293Z,97566.88
2019-05-15T19:13:09.793Z,97546.89
2019-05-15T19:18:11.860Z,97557.86
2019-05-15T19:23:13.489Z,97569.80
2019-05-15T19:28:15.154Z,97565.19
2019-05-15T19:33:22.540Z,97559.41
2019-05-15T19:38:20.449Z,97560.98
2019-05-15T19:43:21.955Z,97552.92
2019-05-15T19:48:23.480Z,97560.16
2019-05-15T19:53:25.231Z,97575.80
2019-05-15T19:58:28.663Z,97567.84
2019-05-15T20:03:30.548Z,97561.70
2019-05-15T20:08:32.728Z,97552.28
2019-05-15T20:13:34.315Z,97554.35
2019-05-15T20:18:35.901Z,97560.16
2019-05-15T20:23:38.212Z,97559.19
2019-05-15T20:28:39.959Z,97549.55
2019-05-15T20:33:41.732Z,97552.19
2019-05-15T20:38:43.312Z,97552.92
2019-05-15T20:43:44.943Z,97555.57
2019-05-15T20:48:48.600Z,97551.23
2019-05-15T20:53:50.017Z,97550.59
2019-05-15T20:58:52.595Z,97539.98
2019-05-15T21:03:54.174Z,97539.66
2019-05-15T21:08:57.779Z,97541.31
2019-05-15T21:14:00.348Z,97535.31
2019-05-15T21:19:02.217Z,97545.56
2019-05-15T21:24:04.055Z,97527.97
2019-05-15T21:29:07.820Z,97525.67
2019-05-15T21:34:09.534Z,97518.22
2019-05-15T21:39:11.430Z,97528.96
2019-05-15T21:44:13.637Z,97532.94
2019-05-15T21:49:15.422Z,97533.91
2019-05-15T21:54:17.975Z,97536.42
2019-05-15T21:59:19.898Z,97536.55
2019-05-15T22:04:21.473Z,97528.73
2019-05-15T22:09:23.778Z,97534.50
2019-05-15T22:14:25.734Z,97533.91
2019-05-15T22:19:30.273Z,97525.59
2019-05-15T22:24:30.844Z,97524.26
2019-05-15T22:29:32.374Z,97526.08
2019-05-15T22:34:34.066Z,97530.39
2019-05-15T22:39:35.559Z,97541.99
2019-05-15T22:44:38.493Z,97532.71
2019-05-15T22:49:40.230Z,97525.22
2019-05-15T22:54:41.869Z,97522.57
2019-05-15T22:59:43.398Z,97510.64
2019-05-15T23:04:45.281Z,97516.71
2019-05-15T23:09:48.851Z,97533.58
2019-05-15T23:14:51.682Z,97528.88
2019-05-15T23:19:53.159Z,97536.83
2019-05-15T23:24:54.932Z,97529.47
2019-05-15T23:29:58.187Z,97529.47
2019-05-15T23:34:59.806Z,97531.16
2019-05-15T23:40:03.449Z,97530.80
2019-05-15T23:45:05.729Z,97529.47
2019-05-15T23:50:07.521Z,97518.03
2019-05-15T23:55:09.456Z,97524.77
